Time;durP1;ratioP1;P1;durP2;ratioP2;P2;SDS_P1;SDS_P2;PMS_P1;PMS_P2;Temp;Humidity;BMP_temperature;BMP_pressure;BME280_temperature;BME280_humidity;BME280_pressure;Samples;Min_cycle;Max_cycle;Signal;HPM_P1;HPM_P2
2023/05/13 00:01:27;;;;;;;10.50;7.30;;;;;;;12.79;100.00;101328.13;5003092;28;20062;-65
2023/05/13 00:03:55;;;;;;;10.18;7.45;;;;;;;12.65;100.00;101332.88;4993807;28;20053;-65
2023/05/13 00:06:22;;;;;;;13.38;8.23;;;;;;;12.58;100.00;101329.72;5010392;28;20050;-65
2023/05/13 00:08:49;;;;;;;12.23;8.38;;;;;;;12.70;100.00;101330.00;5010329;28;20425;-65
2023/05/13 00:11:17;;;;;;;10.95;7.53;;;;;;;12.94;100.00;101327.75;5011510;28;20520;-66
2023/05/13 00:13:44;;;;;;;11.10;7.55;;;;;;;12.90;100.00;101325.94;5011894;28;20057;-66
2023/05/13 00:16:11;;;;;;;9.27;7.22;;;;;;;13.10;100.00;101323.50;5011654;28;20343;-66
2023/05/13 00:18:39;;;;;;;11.77;8.13;;;;;;;12.88;100.00;101329.00;5011216;28;20306;-65
2023/05/13 00:21:06;;;;;;;9.40;6.95;;;;;;;12.98;100.00;101328.75;4994970;28;20073;-65
2023/05/13 00:23:34;;;;;;;11.80;7.90;;;;;;;13.18;100.00;101333.78;4994082;28;20500;-65
2023/05/13 00:26:01;;;;;;;10.27;7.28;;;;;;;13.02;100.00;101337.28;5026792;28;20046;-66
2023/05/13 00:28:29;;;;;;;10.55;8.10;;;;;;;13.10;100.00;101330.97;5022085;28;20453;-66
2023/05/13 00:30:56;;;;;;;9.82;7.32;;;;;;;13.35;99.23;101322.03;5014115;28;20057;-66
2023/05/13 00:33:24;;;;;;;11.20;7.93;;;;;;;13.08;99.63;101328.53;5016612;28;20049;-66
2023/05/13 00:35:51;;;;;;;10.18;7.57;;;;;;;13.25;99.75;101331.41;4995752;28;20054;-67
2023/05/13 00:38:19;;;;;;;10.50;8.15;;;;;;;13.45;98.48;101330.06;5016182;28;20068;-65
2023/05/13 00:40:46;;;;;;;9.05;7.35;;;;;;;13.40;97.91;101338.50;5016067;28;20049;-65
2023/05/13 00:43:13;;;;;;;13.18;8.20;;;;;;;13.00;99.63;101333.97;4998296;28;20405;-65
2023/05/13 00:45:41;;;;;;;14.60;8.60;;;;;;;12.85;100.00;101337.91;4997292;28;20050;-65
2023/05/13 00:48:09;;;;;;;12.32;8.43;;;;;;;13.07;100.00;101332.44;4998142;28;20049;-65
2023/05/13 00:50:37;;;;;;;11.57;8.68;;;;;;;13.27;100.00;101325.53;4997491;28;20175;-65
2023/05/13 00:53:05;;;;;;;14.32;8.52;;;;;;;13.37;98.86;101339.13;5011724;28;20061;-65
2023/05/13 00:55:32;;;;;;;10.80;8.00;;;;;;;13.16;99.46;101349.88;5012751;28;20061;-66
2023/05/13 00:58:00;;;;;;;14.40;8.60;;;;;;;13.08;100.00;101342.34;4997093;28;20357;-66
2023/05/13 01:00:29;;;;;;;13.25;8.80;;;;;;;12.87;100.00;101348.66;5015853;28;20053;-67
2023/05/13 01:03:11;;;;;;;13.82;8.52;;;;;;;12.97;100.00;101346.47;5006879;28;20081;-66
2023/05/13 01:06:05;;;;;;;12.20;9.00;;;;;;;12.88;100.00;101342.00;4985447;28;20050;-65
2023/05/13 01:08:42;;;;;;;11.13;8.10;;;;;;;13.05;100.00;101345.75;5014551;28;20053;-65
2023/05/13 01:11:16;;;;;;;11.95;8.68;;;;;;;13.27;100.00;101334.66;5016350;28;20058;-66
2023/05/13 01:13:46;;;;;;;12.85;9.10;;;;;;;13.25;100.00;101339.69;5014868;28;20064;-66
2023/05/13 01:16:20;;;;;;;13.10;9.05;;;;;;;13.26;100.00;101335.00;4998795;28;20054;-66
2023/05/13 01:19:00;;;;;;;11.95;8.60;;;;;;;13.20;100.00;101337.06;4995623;28;20058;-65
2023/05/13 01:21:28;;;;;;;15.30;8.93;;;;;;;13.26;100.00;101330.28;4993124;28;20046;-66
2023/05/13 01:23:56;;;;;;;13.85;9.50;;;;;;;13.22;100.00;101337.56;4998904;28;20053;-65
2023/05/13 01:26:25;;;;;;;11.85;9.05;;;;;;;13.18;100.00;101338.53;4981790;28;20050;-65
2023/05/13 01:28:54;;;;;;;12.38;9.68;;;;;;;12.94;100.00;101341.56;5014452;28;20405;-65
2023/05/13 01:31:22;;;;;;;14.93;9.88;;;;;;;12.98;100.00;101339.00;4995997;28;20050;-65
2023/05/13 01:33:50;;;;;;;14.25;9.40;;;;;;;12.80;100.00;101345.50;4994097;28;20509;-65
2023/05/13 01:36:18;;;;;;;13.82;9.70;;;;;;;12.91;100.00;101342.22;5014312;28;20050;-65
2023/05/13 01:38:46;;;;;;;12.90;9.43;;;;;;;13.03;100.00;101342.50;4999129;28;20068;-65
2023/05/13 01:41:13;;;;;;;15.77;9.32;;;;;;;13.07;100.00;101339.91;5015209;28;20076;-64
2023/05/13 01:43:41;;;;;;;13.65;9.73;;;;;;;13.01;100.00;101333.66;5019733;28;20054;-65
2023/05/13 01:46:12;;;;;;;15.70;9.73;;;;;;;12.90;100.00;101345.28;4990725;28;20062;-65
2023/05/13 01:48:39;;;;;;;14.52;9.55;;;;;;;12.91;100.00;101341.38;5005851;28;20046;-65
2023/05/13 01:51:08;;;;;;;13.98;10.00;;;;;;;12.96;100.00;101349.53;5016190;28;20057;-66
2023/05/13 01:53:35;;;;;;;13.25;9.82;;;;;;;12.94;100.00;101352.63;4997986;28;20050;-65
2023/05/13 01:56:03;;;;;;;13.93;10.23;;;;;;;12.84;100.00;101346.53;5018223;28;20048;-65
2023/05/13 01:58:30;;;;;;;15.30;10.55;;;;;;;12.49;100.00;101362.00;5014626;28;20498;-65
2023/05/13 02:00:59;;;;;;;13.07;9.85;;;;;;;12.73;100.00;101357.00;4983977;28;20057;-65
2023/05/13 02:03:27;;;;;;;13.75;9.98;;;;;;;12.61;100.00;101359.50;5011450;28;20045;-68
2023/05/13 02:05:54;;;;;;;15.35;9.60;;;;;;;12.71;100.00;101364.78;5030450;28;20061;-69
2023/05/13 02:08:24;;;;;;;14.35;11.07;;;;;;;12.74;100.00;101364.19;4984381;28;20065;-69
2023/05/13 02:10:56;;;;;;;14.55;10.00;;;;;;;12.93;100.00;101361.25;5013740;28;20472;-68
2023/05/13 02:13:24;;;;;;;16.73;10.02;;;;;;;12.98;100.00;101352.81;4997776;28;20058;-66
2023/05/13 02:15:52;;;;;;;17.52;10.07;;;;;;;13.05;100.00;101344.94;5013629;28;20061;-66
2023/05/13 02:18:21;;;;;;;14.25;10.02;;;;;;;13.03;100.00;101349.97;5012360;28;20046;-67
2023/05/13 02:20:48;;;;;;;19.52;9.80;;;;;;;13.23;100.00;101352.22;4996657;28;20068;-65
2023/05/13 02:23:16;;;;;;;13.65;10.30;;;;;;;13.07;100.00;101353.75;5029909;28;20413;-69
2023/05/13 02:25:43;;;;;;;16.05;10.65;;;;;;;13.00;100.00;101356.91;5000406;28;20058;-65
2023/05/13 02:28:11;;;;;;;16.30;10.35;;;;;;;13.06;100.00;101352.91;5032151;28;20050;-69
2023/05/13 02:30:38;;;;;;;14.32;10.13;;;;;;;12.93;100.00;101358.47;5014697;28;20064;-69
2023/05/13 02:33:06;;;;;;;17.00;10.80;;;;;;;12.81;100.00;101356.28;4997608;28;20046;-66
2023/05/13 02:35:34;;;;;;;15.73;10.15;;;;;;;12.94;100.00;101358.16;4996344;28;20054;-66
2023/05/13 02:38:03;;;;;;;14.98;10.25;;;;;;;13.10;100.00;101347.56;4996241;28;20060;-65
2023/05/13 02:40:32;;;;;;;13.93;10.25;;;;;;;13.07;100.00;101356.50;5013116;28;20053;-66
2023/05/13 02:42:59;;;;;;;14.18;9.80;;;;;;;13.13;100.00;101350.53;4997355;28;20041;-65
2023/05/13 02:45:40;;;;;;;12.32;9.75;;;;;;;12.99;100.00;101348.94;4978939;28;20064;-65
2023/05/13 02:48:09;;;;;;;14.20;10.85;;;;;;;12.79;100.00;101349.41;4996981;28;20041;-65
2023/05/13 02:50:39;;;;;;;15.02;9.73;;;;;;;13.03;100.00;101345.25;4980859;28;20054;-65
2023/05/13 02:53:07;;;;;;;;;;;;;;;13.18;100.00;101342.09;4996836;28;20053;-65
2023/05/13 02:55:38;;;;;;;12.93;9.73;;;;;;;13.12;100.00;101339.78;4979941;28;20446;-65
2023/05/13 02:58:07;;;;;;;15.95;10.32;;;;;;;13.18;100.00;101349.59;4993343;28;20077;-65
2023/05/13 03:00:35;;;;;;;14.55;10.15;;;;;;;13.01;100.00;101352.19;4993658;28;20534;-66
2023/05/13 03:03:02;;;;;;;14.80;10.32;;;;;;;13.05;100.00;101353.22;5007251;28;20054;-66
2023/05/13 03:05:30;;;;;;;15.77;10.70;;;;;;;13.02;100.00;101345.56;4980892;28;20339;-65
2023/05/13 03:07:57;;;;;;;15.85;11.38;;;;;;;13.15;100.00;101348.25;5031379;28;20058;-65
2023/05/13 03:10:25;;;;;;;14.13;11.27;;;;;;;13.06;100.00;101350.16;4980296;28;20742;-65
2023/05/13 03:12:52;;;;;;;17.65;11.32;;;;;;;13.03;100.00;101353.56;5014592;28;20050;-64
2023/05/13 03:15:20;;;;;;;15.90;11.88;;;;;;;13.07;100.00;101356.50;5013612;28;20056;-65
2023/05/13 03:17:47;;;;;;;19.05;12.85;;;;;;;13.00;100.00;101361.63;5028182;28;20048;-65
2023/05/13 03:20:16;;;;;;;15.77;12.65;;;;;;;12.95;100.00;101361.75;5020837;28;20058;-64
2023/05/13 03:22:43;;;;;;;18.63;13.30;;;;;;;12.84;100.00;101357.59;5012750;28;20049;-65
2023/05/13 03:25:11;;;;;;;17.88;12.95;;;;;;;13.01;100.00;101366.00;5013139;28;20049;-65
2023/05/13 03:27:42;;;;;;;17.60;13.20;;;;;;;13.27;100.00;101358.75;4996278;28;20046;-69
2023/05/13 03:30:10;;;;;;;17.15;14.20;;;;;;;13.16;100.00;101352.66;5014656;28;20050;-69
2023/05/13 03:32:50;;;;;;;19.83;15.77;;;;;;;13.23;100.00;101353.03;4992514;28;20054;-66
2023/05/13 03:35:18;;;;;;;20.65;14.90;;;;;;;13.27;100.00;101354.03;4992527;28;20057;-65
2023/05/13 03:37:46;;;;;;;22.20;15.65;;;;;;;13.44;100.00;101354.13;5004484;28;20046;-64
2023/05/13 03:40:15;;;;;;;26.02;19.50;;;;;;;12.84;100.00;101358.41;5011548;28;20057;-66
2023/05/13 03:42:42;;;;;;;31.30;22.35;;;;;;;12.86;100.00;101364.44;5012518;28;20050;-70
2023/05/13 03:45:10;;;;;;;30.63;23.17;;;;;;;12.80;100.00;101365.69;4996511;28;20054;-69
2023/05/13 03:47:40;;;;;;;29.10;23.30;;;;;;;12.93;100.00;101364.84;5011613;28;20038;-69
2023/05/13 03:50:12;;;;;;;32.10;24.30;;;;;;;13.08;100.00;101358.94;5012847;28;20386;-66
2023/05/13 03:52:42;;;;;;;33.60;25.95;;;;;;;13.18;100.00;101369.75;5012598;28;20058;-65
2023/05/13 03:55:13;;;;;;;40.45;29.63;;;;;;;12.95;100.00;101362.56;5009088;28;20055;-65
2023/05/13 03:57:46;;;;;;;41.90;32.60;;;;;;;12.94;100.00;101377.50;5011707;28;20045;-69
2023/05/13 04:00:15;;;;;;;39.90;32.22;;;;;;;12.88;100.00;101380.72;5027072;28;20465;-69
2023/05/13 04:02:42;;;;;;;41.00;33.20;;;;;;;12.91;100.00;101375.38;5014839;28;20061;-69
2023/05/13 04:05:12;;;;;;;49.63;40.00;;;;;;;13.12;100.00;101372.97;5028093;28;20057;-65
2023/05/13 04:07:40;;;;;;;58.63;43.25;;;;;;;13.09;100.00;101381.91;5005503;28;20058;-65
2023/05/13 04:10:09;;;;;;;61.63;47.80;;;;;;;13.20;100.00;101384.09;5017016;28;20648;-64
2023/05/13 04:12:41;;;;;;;66.72;47.92;;;;;;;13.30;100.00;101383.84;4996553;28;20064;-68
2023/05/13 04:15:09;;;;;;;65.82;48.38;;;;;;;13.33;100.00;101391.53;5013192;28;20080;-69
2023/05/13 04:17:36;;;;;;;70.43;52.65;;;;;;;13.06;100.00;101399.09;4996557;28;20047;-70
2023/05/13 04:20:04;;;;;;;73.38;54.42;;;;;;;13.17;100.00;101390.25;5012808;28;20069;-69
2023/05/13 04:22:34;;;;;;;68.65;55.40;;;;;;;13.18;100.00;101386.34;4980544;28;20054;-68
2023/05/13 04:25:01;;;;;;;72.45;53.97;;;;;;;13.43;100.00;101394.03;4997957;28;20065;-69
2023/05/13 04:27:28;;;;;;;66.53;51.83;;;;;;;13.57;100.00;101396.69;5000241;28;20053;-65
2023/05/13 04:30:03;;;;;;;74.15;53.60;;;;;;;13.55;100.00;101385.94;4999690;28;20068;-66
2023/05/13 04:32:32;;;;;;;77.80;55.05;;;;;;;13.44;100.00;101395.66;4998861;28;20081;-69
2023/05/13 04:35:00;;;;;;;69.93;52.72;;;;;;;13.40;100.00;101397.44;5017087;28;20050;-65
2023/05/13 04:37:30;;;;;;;69.80;54.05;;;;;;;13.31;100.00;101413.16;5015111;28;20053;-69
2023/05/13 04:40:01;;;;;;;76.50;54.85;;;;;;;13.24;100.00;101404.47;4999074;28;20046;-68
2023/05/13 04:42:28;;;;;;;71.40;53.00;;;;;;;13.26;100.00;101409.69;4999233;28;20053;-68
2023/05/13 04:44:56;;;;;;;70.70;52.65;;;;;;;13.16;100.00;101398.88;5011205;28;20046;-68
2023/05/13 04:47:23;;;;;;;68.82;51.75;;;;;;;13.32;100.00;101402.88;5016669;28;20045;-69
2023/05/13 04:49:51;;;;;;;69.88;52.45;;;;;;;13.39;100.00;101397.72;5015764;28;20054;-69
2023/05/13 04:52:18;;;;;;;65.20;52.45;;;;;;;13.36;100.00;101403.88;4984392;28;20058;-69
2023/05/13 04:54:46;;;;;;;64.82;51.70;;;;;;;13.40;100.00;101405.72;4983128;28;20111;-68
2023/05/13 04:57:13;;;;;;;66.50;52.17;;;;;;;13.54;100.00;101413.94;5016696;28;20054;-68
2023/05/13 04:59:40;;;;;;;68.95;50.50;;;;;;;13.74;100.00;101413.41;5032078;28;20262;-69
2023/05/13 05:02:09;;;;;;;67.80;52.88;;;;;;;13.55;100.00;101408.09;4994629;28;20057;-69
2023/05/13 05:04:37;;;;;;;68.85;52.72;;;;;;;13.21;100.00;101420.88;4998347;28;20054;-67
2023/05/13 05:07:10;;;;;;;70.72;53.90;;;;;;;13.25;100.00;101424.66;5011238;28;20050;-69
2023/05/13 05:09:38;;;;;;;66.30;50.22;;;;;;;13.41;100.00;101434.19;5014345;28;20590;-69
2023/05/13 05:12:06;;;;;;;68.28;49.97;;;;;;;13.26;100.00;101432.66;5015554;28;20497;-68
2023/05/13 05:14:37;;;;;;;68.05;50.67;;;;;;;13.39;100.00;101428.97;4999375;28;20042;-70
2023/05/13 05:17:05;;;;;;;69.80;51.35;;;;;;;13.56;100.00;101431.88;5010034;28;20065;-70
2023/05/13 05:19:33;;;;;;;63.03;48.75;;;;;;;13.57;100.00;101433.50;4999163;28;20613;-69
2023/05/13 05:22:00;;;;;;;68.78;50.17;;;;;;;13.45;100.00;101446.28;4999330;28;20051;-70
2023/05/13 05:24:27;;;;;;;64.07;50.03;;;;;;;13.61;100.00;101442.00;5015797;28;20050;-69
2023/05/13 05:26:55;;;;;;;68.90;51.80;;;;;;;13.60;100.00;101447.88;4997689;28;20061;-70
2023/05/13 05:29:23;;;;;;;72.10;52.85;;;;;;;13.51;100.00;101461.66;4999086;28;20062;-69
2023/05/13 05:31:50;;;;;;;67.40;51.50;;;;;;;13.53;100.00;101462.13;5015803;28;20062;-67
2023/05/13 05:34:18;;;;;;;57.75;48.30;;;;;;;13.56;99.02;101459.53;4998425;28;20069;-70
2023/05/13 05:36:45;;;;;;;61.75;48.60;;;;;;;13.51;99.10;101467.19;5031083;28;20057;-69
2023/05/13 05:39:15;;;;;;;63.20;48.78;;;;;;;13.61;98.99;101463.31;5030360;28;20520;-69
2023/05/13 05:41:42;;;;;;;61.58;49.20;;;;;;;13.57;98.34;101460.38;5015010;28;20423;-69
2023/05/13 05:44:12;;;;;;;65.65;48.08;;;;;;;13.37;98.72;101466.41;5016291;28;20053;-70
2023/05/13 05:46:39;;;;;;;62.08;47.95;;;;;;;13.51;98.50;101472.72;5019382;28;20080;-69
2023/05/13 05:49:07;;;;;;;56.35;46.80;;;;;;;13.63;97.52;101481.28;5030539;28;20058;-70
2023/05/13 05:51:36;;;;;;;58.85;45.67;;;;;;;13.65;97.18;101478.19;5014628;28;20058;-70
2023/05/13 05:54:04;;;;;;;58.42;46.97;;;;;;;13.74;96.89;101481.81;4984580;28;20046;-69
2023/05/13 05:56:31;;;;;;;62.58;47.10;;;;;;;13.88;95.42;101488.09;4998613;28;20057;-70
2023/05/13 05:58:59;;;;;;;56.33;44.47;;;;;;;13.88;94.41;101488.09;5014145;28;20050;-70
2023/05/13 06:01:35;;;;;;;56.28;42.22;;;;;;;13.67;94.92;101487.78;5013499;28;20053;-69
2023/05/13 06:04:03;;;;;;;54.67;42.92;;;;;;;13.89;94.18;101493.34;4999286;28;20053;-68
2023/05/13 06:06:31;;;;;;;55.63;43.25;;;;;;;13.66;94.67;101491.69;4997396;28;20045;-69
2023/05/13 06:09:00;;;;;;;53.03;42.72;;;;;;;13.85;95.07;101488.72;5015421;28;20493;-69
2023/05/13 06:11:28;;;;;;;51.25;38.72;;;;;;;13.82;93.86;101489.38;5011020;28;20602;-69
2023/05/13 06:13:56;;;;;;;50.58;40.72;;;;;;;13.96;94.15;101498.41;4998061;28;20706;-69
2023/05/13 06:16:23;;;;;;;53.10;41.92;;;;;;;14.07;92.50;101494.25;4981378;28;20064;-69
2023/05/13 06:18:51;;;;;;;52.53;40.20;;;;;;;13.95;92.53;101510.59;5014925;28;20041;-69
2023/05/13 06:21:19;;;;;;;48.80;39.05;;;;;;;13.95;92.60;101503.13;5030622;28;20705;-70
2023/05/13 06:23:48;;;;;;;47.00;38.60;;;;;;;14.00;92.52;101502.97;5015352;28;20054;-69
2023/05/13 06:26:15;;;;;;;41.78;35.20;;;;;;;14.10;91.37;101513.81;5014796;28;20519;-70
2023/05/13 06:28:43;;;;;;;46.85;36.47;;;;;;;14.09;90.48;101512.16;5013587;28;20104;-69
2023/05/13 06:31:10;;;;;;;46.70;36.30;;;;;;;14.07;90.75;101508.91;4996555;28;20053;-69
2023/05/13 06:33:38;;;;;;;46.45;38.63;;;;;;;14.18;90.40;101507.50;4997443;28;20053;-70
2023/05/13 06:36:06;;;;;;;49.03;37.90;;;;;;;14.16;90.24;101511.72;5009553;28;20038;-69
2023/05/13 06:38:34;;;;;;;51.95;38.08;;;;;;;14.12;90.46;101521.81;4995744;28;20047;-69
2023/05/13 06:41:02;;;;;;;48.58;37.40;;;;;;;13.97;90.64;101524.97;5012435;28;20050;-70
2023/05/13 06:43:32;;;;;;;46.83;36.75;;;;;;;13.97;91.32;101520.25;5011938;28;20042;-70
2023/05/13 06:46:11;;;;;;;48.08;38.17;;;;;;;13.92;91.45;101522.31;4972270;28;20054;-70
2023/05/13 06:48:39;;;;;;;45.85;35.85;;;;;;;14.06;91.19;101517.53;4996991;28;20061;-71
2023/05/13 06:51:06;;;;;;;48.15;36.92;;;;;;;14.21;90.45;101517.13;5014562;28;20045;-73
2023/05/13 06:53:33;;;;;;;49.20;36.22;;;;;;;14.41;89.63;101522.16;5014797;28;20061;-69
2023/05/13 06:56:01;;;;;;;47.63;38.55;;;;;;;14.40;88.26;101517.75;5015042;28;20481;-67
2023/05/13 06:58:28;;;;;;;40.55;35.38;;;;;;;14.55;90.04;101525.63;5014363;28;20042;-73
2023/05/13 07:00:55;;;;;;;48.88;37.63;;;;;;;14.32;88.56;101535.97;5015619;28;20401;-71
2023/05/13 07:03:23;;;;;;;46.88;37.60;;;;;;;14.06;90.21;101526.66;5013965;28;20050;-68
2023/05/13 07:05:51;;;;;;;50.42;37.40;;;;;;;14.13;90.83;101527.03;5014177;28;20053;-71
2023/05/13 07:08:18;;;;;;;50.67;38.70;;;;;;;14.11;90.47;101531.25;4994048;28;20060;-72
2023/05/13 07:10:45;;;;;;;49.10;38.83;;;;;;;14.07;90.99;101542.13;5004234;28;20053;-71
2023/05/13 07:13:13;;;;;;;51.17;37.70;;;;;;;14.14;90.08;101541.72;5014396;28;20050;-71
2023/05/13 07:15:40;;;;;;;43.20;35.67;;;;;;;14.27;89.42;101525.03;5013028;28;20046;-71
2023/05/13 07:18:08;;;;;;;50.30;37.63;;;;;;;14.28;89.42;101523.03;5012888;28;20046;-72
2023/05/13 07:20:36;;;;;;;49.45;36.35;;;;;;;14.33;88.38;101520.97;5014031;28;20046;-74
2023/05/13 07:23:03;;;;;;;45.90;35.92;;;;;;;14.48;88.40;101531.66;5013814;28;20061;-75
2023/05/13 07:25:31;;;;;;;46.72;35.70;;;;;;;14.60;87.66;101528.25;5012464;28;20054;-72
2023/05/13 07:27:58;;;;;;;50.05;35.92;;;;;;;14.38;87.93;101531.09;5014139;28;20049;-75
2023/05/13 07:30:26;;;;;;;43.92;33.95;;;;;;;14.77;87.25;101513.66;4996868;28;20054;-75
2023/05/13 07:32:53;;;;;;;45.72;33.92;;;;;;;14.80;85.66;101527.69;5012376;28;20057;-73
2023/05/13 07:35:21;;;;;;;45.60;34.40;;;;;;;14.66;85.79;101527.00;5023822;28;20428;-72
2023/05/13 07:37:49;;;;;;;42.58;31.63;;;;;;;14.77;85.63;101524.75;5013496;28;20046;-72
2023/05/13 07:40:17;;;;;;;44.92;33.33;;;;;;;14.82;84.82;101524.59;4993040;28;20045;-71
2023/05/13 07:42:47;;;;;;;47.63;34.35;;;;;;;14.90;83.38;101532.94;5010294;28;20045;-72
2023/05/13 07:45:15;;;;;;;45.97;33.92;;;;;;;14.80;84.78;101533.22;5013720;28;20049;-72
2023/05/13 07:47:42;;;;;;;47.85;34.25;;;;;;;14.71;84.70;101532.38;5006646;28;20422;-72
2023/05/13 07:50:11;;;;;;;51.22;35.42;;;;;;;14.73;84.92;101530.13;5005840;28;20050;-73
2023/05/13 07:52:38;;;;;;;40.58;33.67;;;;;;;14.92;84.58;101536.19;4978888;28;20551;-72
2023/05/13 07:55:06;;;;;;;45.42;35.50;;;;;;;14.92;84.33;101547.31;4996415;28;20050;-73
2023/05/13 07:57:34;;;;;;;43.40;33.50;;;;;;;15.30;82.83;101531.69;5013103;28;20517;-76
2023/05/13 08:00:01;;;;;;;45.65;35.35;;;;;;;15.15;82.63;101540.47;5026953;28;20053;-71
2023/05/13 08:02:40;;;;;;;52.05;38.72;;;;;;;14.97;83.60;101543.53;5000419;28;20046;-70
2023/05/13 08:05:08;;;;;;;54.40;37.97;;;;;;;15.02;83.36;101555.31;5013723;28;20054;-70
2023/05/13 08:07:36;;;;;;;50.63;38.28;;;;;;;14.99;83.57;101553.19;5010978;28;20492;-70
2023/05/13 08:10:04;;;;;;;50.08;38.70;;;;;;;15.19;82.72;101552.56;5007401;28;20045;-70
2023/05/13 08:12:31;;;;;;;52.28;39.88;;;;;;;14.90;84.27;101566.22;5009665;28;20050;-71
2023/05/13 08:14:59;;;;;;;52.53;39.13;;;;;;;14.77;85.25;101558.03;5012523;28;20666;-71
2023/05/13 08:17:27;;;;;;;55.63;41.42;;;;;;;14.68;85.61;101554.38;5012803;28;20398;-70
2023/05/13 08:19:54;;;;;;;53.67;42.35;;;;;;;14.65;86.40;101553.06;5008284;28;20053;-71
2023/05/13 08:22:22;;;;;;;62.55;41.42;;;;;;;14.66;86.28;101549.16;5010833;28;20057;-70
2023/05/13 08:24:50;;;;;;;56.92;41.22;;;;;;;14.81;85.37;101562.59;5020023;28;20054;-72
2023/05/13 08:27:17;;;;;;;56.25;41.45;;;;;;;14.89;85.41;101564.56;5028518;28;20069;-74
2023/05/13 08:29:45;;;;;;;60.80;43.58;;;;;;;14.91;85.25;101569.78;4994393;28;20052;-71
2023/05/13 08:32:12;;;;;;;58.53;42.90;;;;;;;14.88;85.30;101559.34;5008838;28;20049;-69
2023/05/13 08:34:39;;;;;;;60.13;42.63;;;;;;;15.04;84.93;101575.25;5012314;28;20057;-71
2023/05/13 08:37:07;;;;;;;56.50;42.67;;;;;;;15.13;84.14;101567.72;5011234;28;20068;-69
2023/05/13 08:39:34;;;;;;;55.45;40.42;;;;;;;15.26;82.91;101566.78;4987531;28;20089;-71
2023/05/13 08:42:03;;;;;;;60.80;43.83;;;;;;;15.11;82.35;101572.81;5016171;28;20066;-72
2023/05/13 08:44:31;;;;;;;63.90;46.05;;;;;;;14.83;84.15;101573.38;5010105;28;20045;-72
2023/05/13 08:47:17;;;;;;;59.17;43.05;;;;;;;14.90;83.71;101570.94;5003412;28;20678;-70
2023/05/13 08:49:45;;;;;;;59.78;42.33;;;;;;;15.07;83.43;101560.72;5008208;28;20069;-70
2023/05/13 08:52:12;;;;;;;60.03;42.60;;;;;;;15.17;82.92;101568.72;4988406;28;20042;-68
2023/05/13 08:54:40;;;;;;;61.38;44.72;;;;;;;14.86;84.57;101572.72;5012126;28;20054;-73
2023/05/13 08:57:07;;;;;;;60.45;43.90;;;;;;;15.29;83.16;101562.56;4985695;28;20046;-72
2023/05/13 08:59:35;;;;;;;61.50;44.92;;;;;;;15.29;83.62;101570.88;4992941;28;20062;-72
2023/05/13 09:02:04;;;;;;;66.63;46.35;;;;;;;14.97;82.70;101574.06;5013599;28;20111;-71
2023/05/13 09:04:33;;;;;;;61.70;46.10;;;;;;;14.72;84.83;101558.97;5004186;28;20379;-71
2023/05/13 09:07:01;;;;;;;61.70;45.23;;;;;;;14.68;85.42;101557.97;5011842;28;20049;-72
2023/05/13 09:09:28;;;;;;;61.53;44.55;;;;;;;14.78;85.70;101560.47;5012262;28;20301;-71
2023/05/13 09:11:56;;;;;;;66.15;45.53;;;;;;;14.86;84.88;101561.63;5030041;28;20049;-71
2023/05/13 09:14:28;;;;;;;57.67;43.40;;;;;;;15.15;84.33;101562.66;5007572;28;20047;-71
2023/05/13 09:16:56;;;;;;;57.47;42.65;;;;;;;15.38;82.53;101563.38;5005402;28;20493;-72
2023/05/13 09:19:24;;;;;;;60.53;42.75;;;;;;;15.12;81.99;101573.59;5015013;28;20061;-73
2023/05/13 09:21:52;;;;;;;62.80;42.97;;;;;;;14.91;83.18;101570.63;5025788;28;20513;-72
2023/05/13 09:24:22;;;;;;;57.15;41.45;;;;;;;14.96;82.28;101569.66;5013838;28;20053;-74
2023/05/13 09:26:50;;;;;;;61.15;42.35;;;;;;;14.74;83.09;101576.09;5007826;28;20560;-73
2023/05/13 09:29:27;;;;;;;55.38;39.95;;;;;;;14.94;82.99;101575.50;5014526;28;20050;-73
2023/05/13 09:31:57;;;;;;;55.25;39.95;;;;;;;15.04;82.39;101580.78;5012952;28;20060;-73
2023/05/13 09:34:33;;;;;;;55.55;41.00;;;;;;;14.99;82.09;101572.63;5010147;28;20034;-71
2023/05/13 09:37:05;;;;;;;54.60;40.70;;;;;;;15.10;81.74;101579.47;5024274;28;20073;-71
2023/05/13 09:39:38;;;;;;;52.70;40.15;;;;;;;15.10;82.11;101579.47;4995518;28;20050;-71
2023/05/13 09:42:16;;;;;;;57.92;39.85;;;;;;;15.39;80.83;101571.38;5014350;28;20057;-72
2023/05/13 09:44:45;;;;;;;56.35;41.53;;;;;;;14.77;83.21;101581.00;5000036;28;20539;-72
2023/05/13 09:47:13;;;;;;;53.67;39.60;;;;;;;14.89;83.69;101572.88;5011295;28;20046;-71
2023/05/13 09:49:42;;;;;;;52.33;39.65;;;;;;;14.93;82.57;101571.13;5009128;28;20054;-69
2023/05/13 09:52:11;;;;;;;51.38;38.88;;;;;;;15.16;81.66;101569.06;5010098;28;20050;-70
2023/05/13 09:54:38;;;;;;;58.78;39.22;;;;;;;15.17;80.36;101563.16;5013497;28;20049;-71
2023/05/13 09:57:05;;;;;;;50.20;38.15;;;;;;;15.14;80.33;101572.16;5010023;28;20057;-71
2023/05/13 09:59:33;;;;;;;49.53;36.83;;;;;;;15.19;80.69;101560.06;4983828;28;20057;-72
2023/05/13 10:02:05;;;;;;;49.42;36.92;;;;;;;15.61;78.61;101562.94;5003091;28;20506;-71
2023/05/13 10:04:33;;;;;;;51.70;37.17;;;;;;;15.71;78.04;101564.56;5004035;28;20536;-73
2023/05/13 10:07:02;;;;;;;47.33;35.78;;;;;;;15.64;77.96;101550.34;5014539;28;20049;-73
2023/05/13 10:09:34;;;;;;;49.45;37.17;;;;;;;15.67;78.07;101561.63;5014923;28;20421;-73
2023/05/13 10:12:02;;;;;;;55.22;38.17;;;;;;;15.78;77.51;101560.16;4993643;28;20065;-72
2023/05/13 10:14:30;;;;;;;54.67;37.85;;;;;;;15.97;76.51;101548.69;4999206;28;20493;-74
2023/05/13 10:17:13;;;;;;;54.50;38.40;;;;;;;15.96;76.26;101554.56;5030370;28;20464;-76
2023/05/13 10:24:09;;;;;;;58.13;39.10;;;;;;;15.59;80.48;101550.50;5019501;28;20054;-70
2023/05/13 10:26:40;;;;;;;;;;;;;;;15.97;79.29;101550.66;5014040;28;20156;-70
2023/05/13 10:29:09;;;;;;;57.38;39.20;;;;;;;15.82;78.81;101557.53;5017436;28;20288;-73
2023/05/13 10:31:37;;;;;;;54.35;37.85;;;;;;;16.11;78.08;101556.84;5029823;28;20049;-73
2023/05/13 10:34:04;;;;;;;58.90;38.85;;;;;;;16.22;76.85;101547.00;4995217;28;20058;-70
2023/05/13 10:37:10;;;;;;;53.88;36.83;;;;;;;16.18;76.07;101552.41;5027474;28;20053;-76
2023/05/13 10:39:42;;;;;;;47.17;35.67;;;;;;;16.07;76.79;101553.09;5010845;28;20062;-76
2023/05/13 10:42:15;;;;;;;47.72;35.13;;;;;;;15.92;76.29;101546.06;4996794;28;20409;-73
2023/05/13 10:44:42;;;;;;;49.58;35.17;;;;;;;16.14;75.73;101542.28;5013547;28;20049;-74
2023/05/13 10:47:10;;;;;;;49.38;34.50;;;;;;;16.32;75.02;101528.00;5014685;28;20437;-70
2023/05/13 10:49:38;;;;;;;46.72;33.05;;;;;;;16.56;75.04;101533.03;4996293;28;20050;-67
2023/05/13 10:52:07;;;;;;;42.47;32.92;;;;;;;16.70;73.40;101525.28;4997270;28;20049;-66
2023/05/13 10:54:39;;;;;;;42.45;31.02;;;;;;;16.57;73.55;101532.69;4997316;28;20386;-69
2023/05/13 10:57:07;;;;;;;49.53;34.78;;;;;;;16.40;73.41;101534.69;5029228;28;20058;-69
2023/05/13 10:59:36;;;;;;;50.42;35.30;;;;;;;15.85;75.60;101540.19;5029381;28;20398;-68
2023/05/13 11:02:23;;;;;;;46.05;34.10;;;;;;;16.21;76.15;101535.09;5027047;28;20583;-68
2023/05/13 11:05:00;;;;;;;44.90;32.25;;;;;;;16.61;74.73;101525.31;4995006;28;20056;-73
2023/05/13 11:07:27;;;;;;;43.40;30.08;;;;;;;17.09;73.09;101521.25;4993898;28;20053;-67
2023/05/13 11:09:55;;;;;;;42.67;30.52;;;;;;;17.04;72.46;101508.38;5007620;28;20060;-72
2023/05/13 11:12:22;;;;;;;40.53;29.90;;;;;;;17.24;70.83;101526.25;4992126;28;20061;-70
2023/05/13 11:14:49;;;;;;;43.45;30.88;;;;;;;17.36;70.49;101516.00;4995543;28;20056;-70
2023/05/13 11:17:18;;;;;;;43.58;31.80;;;;;;;17.05;70.80;101512.75;4996510;28;20497;-69
2023/05/13 11:19:47;;;;;;;38.55;30.00;;;;;;;17.26;69.50;101505.25;4995828;28;20408;-71